Time;durP1;ratioP1;P1;durP2;ratioP2;P2;SDS_P1;SDS_P2;PMS_P1;PMS_P2;Temp;Humidity;BMP_temperature;BMP_pressure;BME280_temperature;BME280_humidity;BME280_pressure;Samples;Min_cycle;Max_cycle;Signal;HPM_P1;HPM_P2
2022/12/19 00:00:47;;;;;;;18.15;12.57;;;-2.10;1.00;;;;;;5074801;28;20201;-68
2022/12/19 00:03:13;;;;;;;17.77;9.65;;;-2.20;1.00;;;;;;5053210;28;20175;-69
2022/12/19 00:05:39;;;;;;;17.93;10.40;;;-2.20;1.00;;;;;;5009308;28;1287742;-68
2022/12/19 00:08:17;;;;;;;21.00;11.13;;;-2.30;1.00;;;;;;5063032;28;20503;-69
2022/12/19 00:10:43;;;;;;;23.95;11.98;;;-2.30;1.00;;;;;;5075852;28;20186;-68
2022/12/19 00:13:09;;;;;;;19.00;13.53;;;-2.30;1.00;;;;;;5075118;28;20193;-71
2022/12/19 00:15:35;;;;;;;19.47;11.40;;;-2.30;1.00;;;;;;5074898;28;20416;-69
2022/12/19 00:18:01;;;;;;;20.73;10.70;;;-2.30;1.00;;;;;;5075736;28;20650;-68
2022/12/19 00:20:27;;;;;;;21.97;11.50;;;-2.30;1.00;;;;;;5057987;28;20174;-69
2022/12/19 00:22:52;;;;;;;28.20;12.40;;;-2.30;1.00;;;;;;5057387;28;20428;-68
2022/12/19 00:25:21;;;;;;;17.37;9.20;;;-2.30;1.00;;;;;;5074500;28;20202;-68
2022/12/19 00:27:46;;;;;;;13.60;10.45;;;-2.30;1.00;;;;;;5075355;28;20185;-68
2022/12/19 00:30:12;;;;;;;19.67;10.57;;;-2.40;1.00;;;;;;5075402;28;20566;-68
2022/12/19 00:32:38;;;;;;;20.60;10.60;;;-2.30;1.00;;;;;;5043370;28;20197;-68
2022/12/19 00:35:04;;;;;;;24.93;12.73;;;-2.30;1.00;;;;;;5054211;28;20198;-69
2022/12/19 00:37:29;;;;;;;21.60;11.77;;;-2.30;1.00;;;;;;5066730;28;20221;-68
2022/12/19 00:39:55;;;;;;;18.27;10.93;;;-2.30;1.00;;;;;;5057261;28;20197;-69
2022/12/19 00:42:21;;;;;;;12.20;9.00;;;-2.30;1.00;;;;;;5075089;28;20253;-68
2022/12/19 00:44:47;;;;;;;31.00;14.07;;;-2.30;1.00;;;;;;5056064;28;20432;-69
2022/12/19 00:47:12;;;;;;;14.97;10.13;;;-2.30;1.00;;;;;;5047959;28;20163;-68
2022/12/19 00:49:38;;;;;;;17.20;12.13;;;-2.40;1.00;;;;;;5054941;28;20671;-68
2022/12/19 00:52:04;;;;;;;18.50;10.83;;;-2.40;1.00;;;;;;5062548;28;20173;-68
2022/12/19 00:54:29;;;;;;;22.53;11.70;;;-2.30;1.00;;;;;;5074018;28;20190;-69
2022/12/19 00:56:55;;;;;;;24.63;11.30;;;-2.30;1.00;;;;;;5074803;28;20213;-69
2022/12/19 00:59:21;;;;;;;24.63;12.80;;;-2.40;1.00;;;;;;5074443;28;20642;-71
2022/12/19 01:01:55;;;;;;;18.43;12.00;;;-2.40;1.00;;;;;;5074338;28;20220;-68
2022/12/19 01:04:21;;;;;;;19.83;11.77;;;-2.30;1.00;;;;;;5073881;28;20193;-68
2022/12/19 01:06:47;;;;;;;21.40;11.47;;;-2.30;1.00;;;;;;5074318;28;20213;-70
2022/12/19 01:09:13;;;;;;;15.57;9.73;;;-2.20;1.00;;;;;;5074744;28;20523;-68
2022/12/19 01:14:23;;;;;;;25.08;14.68;;;-2.20;1.00;;;;;;5073856;28;20788;-69
2022/12/19 01:16:49;;;;;;;30.57;11.73;;;-2.20;1.00;;;;;;5074266;28;20277;-69
2022/12/19 01:19:15;;;;;;;11.48;10.18;;;-2.20;1.00;;;;;;5074542;28;20237;-69
2022/12/19 01:21:41;;;;;;;17.83;11.77;;;-2.20;1.00;;;;;;5056273;28;20194;-69
2022/12/19 01:24:06;;;;;;;23.77;12.27;;;-2.10;1.00;;;;;;5069227;28;20189;-75
2022/12/19 01:26:32;;;;;;;24.20;12.10;;;-2.10;1.00;;;;;;5053450;28;20413;-69
2022/12/19 01:28:58;;;;;;;28.90;13.60;;;-2.10;1.00;;;;;;5036407;28;20214;-68
2022/12/19 01:31:24;;;;;;;14.80;9.80;;;-2.10;1.00;;;;;;5054702;28;20204;-68
2022/12/19 01:33:49;;;;;;;17.93;10.70;;;-2.10;1.00;;;;;;5056273;28;20685;-68
2022/12/19 01:36:15;;;;;;;18.73;10.27;;;-2.00;1.00;;;;;;5073090;28;20561;-69
2022/12/19 01:38:41;;;;;;;17.67;10.60;;;-2.10;1.00;;;;;;5056295;28;20221;-69
2022/12/19 01:41:07;;;;;;;17.27;11.77;;;-2.10;1.00;;;;;;5073743;28;20171;-69
2022/12/19 01:44:02;;;;;;;23.83;13.25;;;-2.00;1.00;;;;;;5073627;28;20224;-68
2022/12/19 01:46:35;;;;;;;16.77;11.27;;;-2.00;1.00;;;;;;5055349;28;20261;-68
2022/12/19 01:49:01;;;;;;;19.30;11.98;;;-2.00;1.00;;;;;;5073241;28;20201;-68
2022/12/19 01:51:39;;;;;;;22.25;12.95;;;-2.00;1.00;;;;;;5055871;28;20167;-70
2022/12/19 01:54:08;;;;;;;20.58;11.68;;;-1.90;1.00;;;;;;5073147;28;20198;-69
2022/12/19 01:56:43;;;;;;;21.38;12.82;;;-1.90;1.00;;;;;;5055512;28;20670;-68
2022/12/19 01:59:15;;;;;;;13.00;9.52;;;-1.80;1.00;;;;;;5073512;28;20186;-68
2022/12/19 02:01:44;;;;;;;24.65;14.00;;;-1.80;1.00;;;;;;5073668;28;20527;-69
2022/12/19 02:04:11;;;;;;;19.20;11.85;;;-1.80;3.20;;;;;;5072938;28;20209;-69
2022/12/19 02:06:39;;;;;;;24.83;11.65;;;-1.80;1.00;;;;;;5072611;28;20520;-69
2022/12/19 02:09:05;;;;;;;22.50;12.50;;;-1.80;1.00;;;;;;5073053;28;20186;-68
2022/12/19 02:11:31;;;;;;;19.97;9.90;;;-1.80;1.00;;;;;;5056006;28;20504;-69
2022/12/19 02:13:56;;;;;;;21.37;11.10;;;-1.80;1.00;;;;;;5055896;28;20523;-69
2022/12/19 02:16:37;;;;;;;18.20;11.13;;;-1.70;1.00;;;;;;5054675;28;20413;-69
2022/12/19 02:19:39;;;;;;;20.65;12.88;;;-1.70;1.00;;;;;;5073347;28;20169;-69
2022/12/19 02:22:41;;;;;;;23.10;13.43;;;-1.70;1.00;;;;;;5053342;28;20639;-68
2022/12/19 02:25:17;;;;;;;16.60;11.07;;;-1.70;3.40;;;;;;5046453;28;20193;-69
2022/12/19 02:28:27;;;;;;;21.48;12.00;;;-1.70;1.30;;;;;;5073399;28;20308;-69
2022/12/19 02:31:05;;;;;;;17.73;9.70;;;-1.70;1.00;;;;;;5016365;28;20214;-68
2022/12/19 02:33:42;;;;;;;18.83;10.18;;;-1.60;1.00;;;;;;5073293;28;20170;-68
2022/12/19 02:36:25;;;;;;;18.85;10.20;;;-1.60;1.00;;;;;;5050328;28;20635;-68
2022/12/19 02:39:02;;;;;;;14.00;10.65;;;-1.60;3.50;;;;;;5053330;28;20175;-68
2022/12/19 02:41:43;;;;;;;19.38;11.43;;;-1.60;3.70;;;;;;5052347;28;20568;-69
2022/12/19 02:44:18;;;;;;;20.20;11.02;;;-1.60;1.00;;;;;;5055411;28;20209;-68
2022/12/19 02:46:46;;;;;;;20.00;11.27;;;-1.60;1.00;;;;;;5052898;28;20162;-69
2022/12/19 02:49:13;;;;;;;16.63;12.60;;;-1.60;1.00;;;;;;5036308;28;20196;-68
2022/12/19 02:51:39;;;;;;;24.13;12.25;;;-1.60;1.00;;;;;;5053131;28;20220;-68
2022/12/19 02:54:05;;;;;;;21.67;11.47;;;-1.50;1.00;;;;;;5055435;28;20203;-70
2022/12/19 02:56:51;;;;;;;26.85;11.73;;;-1.50;1.00;;;;;;5072213;28;20167;-68
2022/12/19 02:59:49;;;;;;;19.33;10.05;;;-1.50;1.00;;;;;;5073371;28;20174;-69
2022/12/19 03:02:33;;;;;;;20.13;11.10;;;-1.50;1.00;;;;;;5059317;28;20208;-68
2022/12/19 03:05:22;;;;;;;19.48;10.20;;;-1.40;1.00;;;;;;5075758;28;20210;-70
2022/12/19 03:07:56;;;;;;;26.58;10.68;;;-1.40;1.00;;;;;;5059211;28;20178;-69
2022/12/19 03:10:44;;;;;;;20.25;12.30;;;-1.40;1.00;;;;;;5076574;28;20194;-68
2022/12/19 03:13:20;;;;;;;18.50;11.00;;;-1.40;1.30;;;;;;5059241;28;20178;-68
2022/12/19 03:15:47;;;;;;;17.92;10.55;;;-1.40;1.00;;;;;;5049503;28;20277;-70
2022/12/19 03:18:12;;;;;;;18.40;11.30;;;-1.40;1.00;;;;;;5058861;28;20253;-69
2022/12/19 03:21:00;;;;;;;14.87;10.53;;;-1.40;1.00;;;;;;5055532;28;20221;-69
2022/12/19 03:23:27;;;;;;;18.52;11.48;;;-1.40;1.00;;;;;;5038767;28;20632;-67
2022/12/19 03:25:56;;;;;;;21.05;12.13;;;-1.30;6.80;;;;;;5046894;28;20198;-68
2022/12/19 03:28:33;;;;;;;18.58;10.73;;;-1.30;4.80;;;;;;5056716;28;20182;-68
2022/12/19 03:31:02;;;;;;;17.90;10.63;;;-1.30;7.60;;;;;;5070050;28;20666;-69
2022/12/19 03:33:30;;;;;;;15.10;10.50;;;-1.30;8.40;;;;;;5076602;28;20194;-69
2022/12/19 03:36:00;;;;;;;24.17;10.02;;;-1.20;2.60;;;;;;5075382;28;20171;-70
2022/12/19 03:38:26;;;;;;;25.55;12.20;;;-1.20;2.30;;;;;;5076291;28;20171;-68
2022/12/19 03:40:54;;;;;;;23.33;12.93;;;-1.20;4.50;;;;;;5058711;28;20178;-69
2022/12/19 03:43:22;;;;;;;21.55;11.63;;;-1.20;14.20;;;;;;5055104;28;20297;-67
2022/12/19 03:45:59;;;;;;;18.95;10.43;;;-1.10;13.10;;;;;;5055323;28;20232;-67
2022/12/19 03:48:47;;;;;;;13.68;9.93;;;-1.10;15.20;;;;;;5075107;28;20329;-67
2022/12/19 03:51:29;;;;;;;18.02;11.20;;;-1.00;21.30;;;;;;5075890;28;20515;-70
2022/12/19 03:54:20;;;;;;;16.08;10.50;;;-1.00;16.10;;;;;;5056069;28;20655;-67
2022/12/19 03:56:55;;;;;;;16.85;11.52;;;-1.00;10.50;;;;;;5059844;28;20174;-68
2022/12/19 03:59:48;;;;;;;30.08;12.45;;;-1.00;8.70;;;;;;5058280;28;20181;-68
2022/12/19 04:02:17;;;;;;;19.98;11.48;;;-1.00;17.90;;;;;;5070105;28;20178;-69
2022/12/19 04:04:46;;;;;;;21.27;11.43;;;-1.00;18.10;;;;;;5057190;28;20193;-68
2022/12/19 04:07:13;;;;;;;12.65;9.40;;;-0.90;21.40;;;;;;5075551;28;20194;-68
2022/12/19 04:09:41;;;;;;;14.25;10.02;;;-0.90;23.20;;;;;;5075752;28;20198;-67
2022/12/19 04:12:24;;;;;;;15.45;10.15;;;-0.90;25.70;;;;;;5053923;28;20182;-68
2022/12/19 04:14:50;;;;;;;20.70;10.40;;;-1.00;28.30;;;;;;5020595;28;20214;-67
2022/12/19 04:17:30;;;;;;;17.70;10.23;;;-0.90;36.20;;;;;;5043208;28;20176;-69
2022/12/19 04:20:00;;;;;;;23.88;10.57;;;-0.90;40.00;;;;;;5076226;28;20190;-68
2022/12/19 04:22:51;;;;;;;16.33;10.23;;;-0.90;39.70;;;;;;5075126;28;20261;-67
2022/12/19 04:25:27;;;;;;;18.13;10.95;;;-0.90;29.50;;;;;;5074573;28;20205;-68
2022/12/19 04:27:58;;;;;;;16.25;9.93;;;-0.90;30.10;;;;;;5075359;28;20240;-67
2022/12/19 04:30:25;;;;;;;15.45;10.80;;;-1.00;28.30;;;;;;5075636;28;20198;-67
2022/12/19 04:32:51;;;;;;;15.30;11.13;;;-1.00;23.00;;;;;;5075158;28;20170;-69
2022/12/19 04:35:17;;;;;;;12.80;10.10;;;-0.90;40.30;;;;;;5056297;28;20194;-68
2022/12/19 04:37:42;;;;;;;19.20;12.47;;;-0.90;45.20;;;;;;5075100;28;20166;-68
2022/12/19 04:40:09;;;;;;;26.70;12.53;;;-0.90;48.10;;;;;;5075433;28;20396;-67
2022/12/19 04:42:35;;;;;;;25.73;12.93;;;-0.90;42.90;;;;;;5074931;28;20273;-68
2022/12/19 04:45:01;;;;;;;18.27;11.10;;;-0.80;47.40;;;;;;5074254;28;20709;-67
2022/12/19 04:47:27;;;;;;;16.23;10.70;;;-0.80;49.00;;;;;;5074721;28;20432;-67
2022/12/19 04:49:52;;;;;;;22.67;12.83;;;-0.80;39.40;;;;;;5075114;28;20452;-68
2022/12/19 04:52:18;;;;;;;16.87;11.20;;;-0.80;39.30;;;;;;5074951;28;20249;-68
2022/12/19 04:54:44;;;;;;;22.37;11.03;;;-0.80;46.80;;;;;;5074154;28;20182;-68
2022/12/19 04:57:09;;;;;;;22.73;11.70;;;-0.90;48.30;;;;;;5057018;28;20647;-68
2022/12/19 04:59:35;;;;;;;17.97;12.27;;;-0.90;53.10;;;;;;5038015;28;20532;-67
2022/12/19 05:02:01;;;;;;;17.37;10.47;;;-0.80;43.20;;;;;;5053935;28;20170;-68
2022/12/19 05:04:26;;;;;;;21.03;12.00;;;-0.80;50.10;;;;;;5073587;28;20198;-68
2022/12/19 05:06:52;;;;;;;19.47;11.80;;;-0.80;53.70;;;;;;5074692;28;20186;-67
2022/12/19 05:09:18;;;;;;;21.43;10.80;;;-0.80;54.70;;;;;;5074385;28;20206;-69
2022/12/19 05:11:43;;;;;;;26.13;10.33;;;-0.80;58.80;;;;;;5074474;28;20201;-69
2022/12/19 05:14:09;;;;;;;18.50;11.30;;;-0.70;61.60;;;;;;5074092;28;20218;-69
2022/12/19 05:16:35;;;;;;;19.20;10.23;;;-0.70;62.00;;;;;;5056112;28;20166;-67
2022/12/19 05:19:01;;;;;;;22.97;12.60;;;-0.70;71.50;;;;;;5060608;28;20169;-68
2022/12/19 05:21:26;;;;;;;17.13;11.23;;;-0.70;68.80;;;;;;5074091;28;20170;-68
2022/12/19 05:23:52;;;;;;;24.73;11.93;;;-0.70;63.90;;;;;;5055978;28;20655;-67
2022/12/19 05:26:18;;;;;;;17.70;10.33;;;-0.70;65.40;;;;;;5052224;28;20440;-69
2022/12/19 05:28:44;;;;;;;22.65;12.50;;;-0.60;71.00;;;;;;5054313;28;20165;-68
2022/12/19 05:31:16;;;;;;;14.83;9.53;;;-0.60;71.80;;;;;;5043433;28;20174;-67
2022/12/19 05:33:42;;;;;;;20.90;12.35;;;-0.60;72.20;;;;;;5074132;28;20162;-68
2022/12/19 05:36:09;;;;;;;20.38;11.90;;;-0.60;86.40;;;;;;5073114;28;20198;-68
2022/12/19 05:38:35;;;;;;;19.95;11.63;;;-0.50;87.30;;;;;;5074283;28;20678;-69
2022/12/19 05:41:10;;;;;;;27.60;12.05;;;-0.50;87.50;;;;;;5048645;28;20190;-68
2022/12/19 05:43:36;;;;;;;24.15;12.48;;;-0.40;87.40;;;;;;5074088;28;20189;-68
2022/12/19 05:46:03;;;;;;;20.83;11.63;;;-0.40;87.50;;;;;;5072688;28;20274;-69
2022/12/19 05:48:29;;;;;;;22.02;13.15;;;-0.30;87.60;;;;;;5073892;28;20399;-68
2022/12/19 05:50:55;;;;;;;16.60;12.20;;;-0.40;87.50;;;;;;5051661;28;20289;-70
2022/12/19 05:53:21;;;;;;;18.63;11.80;;;-0.30;87.70;;;;;;5053904;28;20159;-70
2022/12/19 05:55:46;;;;;;;16.43;11.97;;;-0.30;87.50;;;;;;5058479;28;20186;-71
2022/12/19 05:58:12;;;;;;;20.13;12.60;;;-0.40;87.60;;;;;;5073793;28;20897;-68
2022/12/19 06:00:38;;;;;;;16.97;11.13;;;-0.40;87.50;;;;;;5073553;28;20209;-70
2022/12/19 06:03:04;;;;;;;16.20;11.40;;;-0.40;87.50;;;;;;5073672;28;20166;-69
2022/12/19 06:05:30;;;;;;;23.23;12.47;;;-0.40;87.50;;;;;;5072314;28;20281;-68
2022/12/19 06:07:56;;;;;;;19.48;13.02;;;-0.40;87.50;;;;;;5073481;28;20407;-69
2022/12/19 06:10:21;;;;;;;26.43;12.80;;;-0.30;87.60;;;;;;5073149;28;20201;-69
2022/12/19 06:12:47;;;;;;;25.03;11.93;;;-0.30;87.60;;;;;;5055639;28;20178;-68
2022/12/19 06:15:12;;;;;;;18.40;12.40;;;-0.30;87.50;;;;;;5072426;28;20261;-69
2022/12/19 06:17:38;;;;;;;16.70;10.60;;;-0.30;88.30;;;;;;5073392;28;20555;-69
2022/12/19 06:20:05;;;;;;;21.03;12.10;;;-0.20;90.30;;;;;;5073403;28;20174;-68
2022/12/19 06:22:31;;;;;;;22.60;10.65;;;-0.20;90.50;;;;;;5073142;28;20583;-69
2022/12/19 06:24:56;;;;;;;22.40;12.13;;;-0.20;91.10;;;;;;5072484;28;20240;-69
2022/12/19 06:27:22;;;;;;;19.10;12.47;;;-0.20;95.10;;;;;;5073131;28;20186;-69
2022/12/19 06:29:48;;;;;;;17.83;11.80;;;-0.10;96.90;;;;;;5073332;28;20194;-69
2022/12/19 06:32:13;;;;;;;20.53;13.40;;;-0.10;95.20;;;;;;5073044;28;20584;-68
2022/12/19 06:34:39;;;;;;;17.97;12.70;;;-0.10;95.10;;;;;;5054631;28;20198;-71
2022/12/19 06:37:05;;;;;;;23.70;12.40;;;-0.10;94.00;;;;;;5073085;28;20178;-69
2022/12/19 06:39:30;;;;;;;18.00;10.80;;;-0.10;94.60;;;;;;5073347;28;20188;-71
2022/12/19 06:44:40;;;;;;;17.38;11.85;;;0.00;92.10;;;;;;5072606;28;20693;-70
2022/12/19 06:47:06;;;;;;;26.60;11.30;;;0.00;98.50;;;;;;5073085;28;20214;-70
2022/12/19 06:49:32;;;;;;;26.63;13.13;;;0.00;99.90;;;;;;5073013;28;20201;-69
2022/12/19 06:51:57;;;;;;;21.00;13.40;;;0.10;99.90;;;;;;5072781;28;20171;-69
2022/12/19 06:54:23;;;;;;;21.37;11.50;;;0.20;99.90;;;;;;5071434;28;20406;-69
2022/12/19 06:56:49;;;;;;;17.33;13.33;;;0.20;99.90;;;;;;5072758;28;20944;-68
2022/12/19 06:59:15;;;;;;;20.23;12.70;;;0.30;97.50;;;;;;5072973;28;20186;-68
2022/12/19 07:01:56;;;;;;;22.00;12.82;;;0.30;99.90;;;;;;5072783;28;20581;-69
2022/12/19 07:04:32;;;;;;;22.77;11.75;;;0.30;99.30;;;;;;5071911;28;20538;-70
2022/12/19 07:06:59;;;;;;;20.08;13.30;;;0.30;99.70;;;;;;5072677;28;20750;-68
2022/12/19 07:09:27;;;;;;;20.92;13.73;;;0.30;99.90;;;;;;5072932;28;20205;-69
2022/12/19 07:11:53;;;;;;;18.33;11.82;;;0.30;99.60;;;;;;5072732;28;20174;-68
2022/12/19 07:14:18;;;;;;;29.10;13.07;;;0.30;99.90;;;;;;5072055;28;20281;-75
2022/12/19 07:16:45;;;;;;;18.00;11.77;;;0.30;99.90;;;;;;5072558;28;20209;-69
2022/12/19 07:19:11;;;;;;;16.45;12.60;;;0.30;99.90;;;;;;5073009;28;20170;-68
2022/12/19 07:21:38;;;;;;;19.42;9.77;;;0.30;99.90;;;;;;5072698;28;20166;-69
2022/12/19 07:24:04;;;;;;;18.63;11.65;;;0.30;99.90;;;;;;5072807;28;20605;-68
2022/12/19 07:26:31;;;;;;;18.67;12.85;;;0.30;99.90;;;;;;5071816;28;20261;-70
2022/12/19 07:28:57;;;;;;;20.23;12.38;;;0.40;99.90;;;;;;5072495;28;20166;-70
2022/12/19 07:31:23;;;;;;;27.73;10.95;;;0.40;99.90;;;;;;5072643;28;20166;-71
2022/12/19 07:33:49;;;;;;;17.07;10.93;;;0.40;99.90;;;;;;5072854;28;20651;-69
2022/12/19 07:36:14;;;;;;;17.77;11.30;;;0.40;99.90;;;;;;5071997;28;20166;-69
2022/12/19 07:38:40;;;;;;;17.07;10.00;;;0.40;99.90;;;;;;5072466;28;20876;-68
2022/12/19 07:41:06;;;;;;;23.37;12.93;;;0.40;99.90;;;;;;5072459;28;20178;-70
2022/12/19 07:43:31;;;;;;;23.53;12.47;;;0.40;99.90;;;;;;5072707;28;20574;-69
2022/12/19 07:45:57;;;;;;;18.80;11.50;;;0.50;99.90;;;;;;5073099;28;20188;-70
2022/12/19 07:48:23;;;;;;;19.13;10.73;;;0.50;99.90;;;;;;5076280;28;20166;-69
2022/12/19 07:50:49;;;;;;;18.20;8.60;;;0.50;99.90;;;;;;5075617;28;20201;-68
2022/12/19 07:53:15;;;;;;;23.30;12.07;;;0.50;99.90;;;;;;5058278;28;20913;-68
2022/12/19 07:55:41;;;;;;;23.73;13.00;;;0.50;99.90;;;;;;5074951;28;20277;-68
2022/12/19 07:58:09;;;;;;;27.30;13.80;;;0.50;99.90;;;;;;5076158;28;20595;-69
2022/12/19 08:00:36;;;;;;;18.65;10.85;;;0.60;99.90;;;;;;5075869;28;20455;-69
2022/12/19 08:03:01;;;;;;;13.45;12.05;;;0.60;99.90;;;;;;5075810;28;20174;-69
2022/12/19 08:05:27;;;;;;;18.00;11.30;;;0.60;99.90;;;;;;5074758;28;20347;-70
2022/12/19 08:07:53;;;;;;;19.97;11.23;;;0.60;99.90;;;;;;5076226;28;20931;-68
2022/12/19 08:10:21;;;;;;;23.20;12.05;;;0.60;99.90;;;;;;5075762;28;20197;-69
2022/12/19 08:12:47;;;;;;;18.08;12.55;;;0.60;99.90;;;;;;5075744;28;20504;-68
2022/12/19 08:15:13;;;;;;;17.60;11.23;;;0.70;99.90;;;;;;5057002;28;20200;-70
2022/12/19 08:17:39;;;;;;;20.38;12.60;;;0.80;99.90;;;;;;5057881;28;20804;-70
2022/12/19 08:20:06;;;;;;;20.90;11.83;;;0.80;99.90;;;;;;5075942;28;20178;-70
2022/12/19 08:22:32;;;;;;;26.95;11.50;;;0.80;99.90;;;;;;5075822;28;20688;-70
2022/12/19 08:24:58;;;;;;;19.80;11.50;;;0.80;99.90;;;;;;5074918;28;20202;-69
2022/12/19 08:27:24;;;;;;;30.33;12.57;;;0.80;99.90;;;;;;5075747;28;20166;-68
2022/12/19 08:29:50;;;;;;;22.33;11.68;;;0.90;99.90;;;;;;5075496;28;20210;-70
2022/12/19 08:32:16;;;;;;;17.77;10.93;;;0.90;99.90;;;;;;5053936;28;20170;-68
2022/12/19 08:34:41;;;;;;;19.73;12.00;;;0.90;99.90;;;;;;5036708;28;20213;-69
2022/12/19 08:37:08;;;;;;;17.47;12.00;;;1.00;99.90;;;;;;5062513;28;20169;-69
2022/12/19 08:39:34;;;;;;;15.63;9.18;;;1.10;99.90;;;;;;5075454;28;20542;-70
2022/12/19 08:41:59;;;;;;;17.80;12.03;;;1.10;99.90;;;;;;5057165;28;20185;-70
2022/12/19 08:44:25;;;;;;;18.40;11.10;;;1.00;99.90;;;;;;5074096;28;20242;-70
2022/12/19 08:46:51;;;;;;;22.60;13.55;;;1.00;99.90;;;;;;5075054;28;20199;-68
2022/12/19 08:49:18;;;;;;;24.03;14.40;;;1.00;99.90;;;;;;5074819;28;20194;-70
2022/12/19 08:51:44;;;;;;;16.10;10.30;;;1.10;99.90;;;;;;5075164;28;20200;-71
2022/12/19 08:54:11;;;;;;;14.30;10.23;;;1.10;99.90;;;;;;5074368;28;20199;-68
2022/12/19 08:56:37;;;;;;;22.52;11.73;;;1.10;99.90;;;;;;5073468;28;20159;-70
2022/12/19 08:59:03;;;;;;;18.05;11.60;;;1.10;99.90;;;;;;5055928;28;20538;-70
2022/12/19 09:01:28;;;;;;;16.35;11.10;;;1.10;99.90;;;;;;5074895;28;20167;-68
2022/12/19 09:03:57;;;;;;;19.30;11.43;;;1.10;99.90;;;;;;5074279;28;20269;-70
2022/12/19 09:06:23;;;;;;;20.15;12.52;;;1.10;99.90;;;;;;5073849;28;20178;-67
2022/12/19 09:08:49;;;;;;;17.33;11.45;;;1.20;99.90;;;;;;5074548;28;20209;-67
2022/12/19 09:11:16;;;;;;;26.87;11.40;;;1.20;99.90;;;;;;5074414;28;20248;-68
2022/12/19 09:13:43;;;;;;;22.35;11.73;;;1.10;99.90;;;;;;5073894;28;20184;-67
2022/12/19 09:16:15;;;;;;;16.02;10.52;;;1.20;99.90;;;;;;5073690;28;20216;-67
2022/12/19 09:18:43;;;;;;;18.17;12.60;;;1.20;99.90;;;;;;5074336;28;20634;-70
2022/12/19 09:21:09;;;;;;;16.33;11.25;;;1.20;99.90;;;;;;5074482;28;20573;-67
2022/12/19 09:23:35;;;;;;;14.70;10.47;;;1.20;99.90;;;;;;5073787;28;20174;-70
2022/12/19 09:26:09;;;;;;;19.27;12.50;;;1.30;99.90;;;;;;5073513;28;20170;-71
2022/12/19 09:28:37;;;;;;;16.33;11.60;;;1.30;99.90;;;;;;5074739;28;20170;-71
2022/12/19 09:31:06;;;;;;;17.45;11.40;;;1.30;99.90;;;;;;5074077;28;20197;-68
2022/12/19 09:33:34;;;;;;;22.57;11.20;;;1.30;99.90;;;;;;5074229;28;20170;-73
2022/12/19 09:36:00;;;;;;;17.33;10.23;;;1.40;99.90;;;;;;5073030;28;20431;-72
2022/12/19 09:38:28;;;;;;;17.83;12.10;;;1.40;99.90;;;;;;5074601;28;20224;-72
2022/12/19 09:41:28;;;;;;;15.82;11.25;;;1.40;99.90;;;;;;5073819;28;20170;-68
2022/12/19 09:44:15;;;;;;;15.23;10.75;;;1.50;99.90;;;;;;5047670;28;20224;-73
2022/12/19 09:47:17;;;;;;;12.77;10.35;;;1.50;99.90;;;;;;5073456;28;20225;-69
2022/12/19 09:49:45;;;;;;;18.30;11.15;;;1.50;99.90;;;;;;5066485;28;20271;-74
2022/12/19 09:52:18;;;;;;;23.42;11.75;;;1.50;99.90;;;;;;5074082;28;20169;-71
2022/12/19 09:55:04;;;;;;;16.02;11.05;;;1.50;99.90;;;;;;5072736;28;20198;-68
2022/12/19 09:57:48;;;;;;;20.88;11.50;;;1.50;99.90;;;;;;5073763;28;20619;-69
2022/12/19 10:00:20;;;;;;;19.33;11.38;;;1.50;99.90;;;;;;5073603;28;20190;-74
2022/12/19 10:03:07;;;;;;;18.73;10.85;;;1.60;99.90;;;;;;5073908;28;20308;-75
2022/12/19 10:05:49;;;;;;;15.93;10.18;;;1.50;99.90;;;;;;5072577;28;20359;-77
2022/12/19 10:08:24;;;;;;;12.50;10.55;;;1.60;99.90;;;;;;5055371;28;20638;-79
2022/12/19 10:11:11;;;;;;;20.38;12.23;;;1.60;99.90;;;;;;5073363;28;20201;-76
2022/12/19 10:14:14;;;;;;;15.25;11.18;;;1.60;99.90;;;;;;5055462;28;20265;-72
2022/12/19 10:17:13;;;;;;;22.80;12.85;;;1.70;99.90;;;;;;5052892;28;20269;-78
2022/12/19 10:19:56;;;;;;;15.85;10.55;;;1.70;99.90;;;;;;5057951;28;20255;-76
2022/12/19 10:22:41;;;;;;;16.85;11.52;;;1.80;99.90;;;;;;5073330;28;20263;-78
2022/12/19 10:25:25;;;;;;;19.65;12.02;;;1.70;1.00;;;;;;5070739;28;20186;-79
2022/12/19 10:27:59;;;;;;;16.08;11.07;;;1.80;1.00;;;;;;5051226;28;20209;-68
2022/12/19 10:30:26;;;;;;;14.55;10.43;;;1.80;1.00;;;;;;5073139;28;20593;-69
2022/12/19 10:33:21;;;;;;;16.83;9.77;;;1.80;1.00;;;;;;5073442;28;20167;-78
2022/12/19 10:35:55;;;;;;;12.70;9.75;;;1.90;1.00;;;;;;5052497;28;20233;-77
2022/12/19 10:38:26;;;;;;;11.25;8.70;;;1.90;1.00;;;;;;5068012;28;20227;-69
2022/12/19 10:41:13;;;;;;;11.25;8.95;;;1.90;1.00;;;;;;5073176;28;20185;-69
2022/12/19 10:44:01;;;;;;;10.67;8.67;;;2.00;1.00;;;;;;5073252;28;20647;-70
2022/12/19 10:46:36;;;;;;;15.07;9.90;;;2.00;1.00;;;;;;5052449;28;20389;-78
2022/12/19 10:49:18;;;;;;;11.40;8.97;;;2.00;1.00;;;;;;5065331;28;20411;-70
2022/12/19 10:52:09;;;;;;;11.35;9.55;;;2.00;1.00;;;;;;5072723;28;20435;-69
2022/12/19 10:54:38;;;;;;;17.10;9.60;;;2.00;1.00;;;;;;5052103;28;20191;-77
2022/12/19 10:57:21;;;;;;;14.57;9.87;;;2.00;1.00;;;;;;5070850;28;20487;-70
2022/12/19 10:59:53;;;;;;;14.47;9.57;;;2.10;1.00;;;;;;5051488;28;20945;-77
2022/12/19 11:02:39;;;;;;;11.95;8.90;;;2.10;1.00;;;;;;5053661;28;20413;-77
2022/12/19 11:05:21;;;;;;;11.07;10.00;;;2.10;1.00;;;;;;5072159;28;20692;-72
2022/12/19 11:08:05;;;;;;;13.97;10.63;;;2.10;1.00;;;;;;5051669;28;20424;-76
2022/12/19 11:10:41;;;;;;;9.80;8.80;;;2.20;1.00;;;;;;5053686;28;20510;-72
2022/12/19 11:13:25;;;;;;;18.90;9.37;;;2.20;1.00;;;;;;5073087;28;20407;-72
2022/12/19 11:15:56;;;;;;;18.58;9.20;;;2.20;1.00;;;;;;5051955;28;20425;-72
2022/12/19 11:18:23;;;;;;;12.30;8.37;;;2.30;1.00;;;;;;5064889;28;20250;-76
2022/12/19 11:21:02;;;;;;;13.80;10.10;;;2.30;1.00;;;;;;5074006;28;20401;-72
2022/12/19 11:23:30;;;;;;;13.90;10.07;;;2.40;1.00;;;;;;5076948;28;20400;-72
2022/12/19 11:26:00;;;;;;;12.97;8.00;;;2.40;1.00;;;;;;5075688;28;20420;-80
2022/12/19 11:28:32;;;;;;;10.43;8.67;;;2.40;1.00;;;;;;5076312;28;20439;-72
2022/12/19 11:31:06;;;;;;;8.47;7.53;;;2.50;1.00;;;;;;5076926;28;20888;-73
2022/12/19 11:33:32;;;;;;;16.63;8.10;;;2.50;1.00;;;;;;5076321;28;20417;-73
2022/12/19 11:36:00;;;;;;;12.93;9.30;;;2.50;1.00;;;;;;5054187;28;20410;-73
2022/12/19 11:38:31;;;;;;;9.53;8.40;;;2.60;24.60;;;;;;5057283;28;20234;-78
2022/12/19 11:41:01;;;;;;;12.20;8.93;;;2.60;34.20;;;;;;5076380;28;20458;-73
2022/12/19 11:43:36;;;;;;;8.97;8.03;;;2.60;46.30;;;;;;5076226;28;20758;-74
2022/12/19 11:46:11;;;;;;;14.87;10.03;;;2.60;58.30;;;;;;5075240;28;20416;-73
2022/12/19 11:48:54;;;;;;;13.77;8.80;;;2.70;74.00;;;;;;5076350;28;20396;-80
2022/12/19 11:51:50;;;;;;;11.07;8.33;;;2.70;71.60;;;;;;5076116;28;20459;-73
2022/12/19 11:54:31;;;;;;;9.80;7.80;;;2.70;89.00;;;;;;5075697;28;20436;-73
2022/12/19 11:56:56;;;;;;;10.37;7.87;;;2.70;92.60;;;;;;5075981;28;20765;-73
2022/12/19 11:59:35;;;;;;;9.67;7.93;;;2.70;96.10;;;;;;5076227;28;20454;-74
2022/12/19 12:02:21;;;;;;;8.90;7.57;;;2.70;97.00;;;;;;5075828;28;20613;-80
2022/12/19 12:05:05;;;;;;;12.10;8.80;;;2.70;99.90;;;;;;5072768;28;20448;-73
2022/12/19 12:07:38;;;;;;;9.90;8.27;;;2.70;99.90;;;;;;5076020;28;20416;-73
2022/12/19 12:10:24;;;;;;;9.90;7.83;;;2.70;99.90;;;;;;5075646;28;20483;-81
2022/12/19 12:12:58;;;;;;;16.90;8.40;;;2.70;99.90;;;;;;5075202;28;20943;-80
2022/12/19 12:15:27;;;;;;;10.77;8.83;;;2.80;99.90;;;;;;5074710;28;20440;-72
2022/12/19 12:18:11;;;;;;;14.43;9.47;;;2.80;99.90;;;;;;5075779;28;20393;-80
2022/12/19 12:20:55;;;;;;;15.17;9.60;;;2.80;99.90;;;;;;5075495;28;20917;-80
2022/12/19 12:23:38;;;;;;;14.13;9.33;;;2.80;99.90;;;;;;5075233;28;20444;-73
2022/12/19 12:26:29;;;;;;;11.33;8.60;;;2.80;99.90;;;;;;5047433;28;20839;-72
2022/12/19 12:29:28;;;;;;;12.40;8.67;;;2.90;99.90;;;;;;5058048;28;20421;-80
2022/12/19 12:32:28;;;;;;;13.97;8.93;;;2.90;99.90;;;;;;5066227;28;20427;-74
2022/12/19 12:35:15;;;;;;;15.07;9.23;;;2.90;99.90;;;;;;5036550;28;20437;-74
2022/12/19 12:38:05;;;;;;;16.80;9.10;;;2.90;99.90;;;;;;5070020;28;20421;-73
2022/12/19 12:40:37;;;;;;;14.90;9.43;;;2.90;99.90;;;;;;5075175;28;20431;-73
2022/12/19 12:43:35;;;;;;;12.67;9.43;;;2.90;99.90;;;;;;5075393;28;20388;-77
2022/12/19 12:46:03;;;;;;;13.90;7.90;;;3.00;99.90;;;;;;5054435;28;20902;-72
2022/12/19 12:48:36;;;;;;;11.67;9.97;;;3.00;99.90;;;;;;5068287;28;20492;-78
2022/12/19 12:51:03;;;;;;;11.70;8.43;;;3.10;99.90;;;;;;5074822;28;20456;-71
2022/12/19 12:53:34;;;;;;;10.43;7.33;;;3.10;99.90;;;;;;5057374;28;20823;-78
2022/12/19 12:56:02;;;;;;;17.33;9.53;;;3.10;99.90;;;;;;5073828;28;20982;-72
2022/12/19 12:58:47;;;;;;;18.97;7.83;;;3.20;99.90;;;;;;5053788;28;20412;-73
2022/12/19 13:01:24;;;;;;;11.30;8.93;;;3.20;99.90;;;;;;5054851;28;20401;-73
2022/12/19 13:04:02;;;;;;;12.97;8.70;;;3.20;99.90;;;;;;5073360;28;20444;-73
2022/12/19 13:06:38;;;;;;;9.00;8.13;;;3.20;99.90;;;;;;5073448;28;20439;-78